createdAt,value
2019-02-28T00:01:11.967Z,62.50
2019-02-28T00:03:37.624Z,66.30
2019-02-28T00:06:05.030Z,63.47
2019-02-28T00:08:32.467Z,57.90
2019-02-28T00:11:02.082Z,59.17
2019-02-28T00:13:27.314Z,64.17
2019-02-28T00:15:54.735Z,61.83
2019-02-28T00:18:22.164Z,62.43
2019-02-28T00:20:49.605Z,65.60
2019-02-28T00:23:19.183Z,64.73
2019-02-28T00:25:44.447Z,60.67
2019-02-28T00:28:11.855Z,67.77
2019-02-28T00:30:40.766Z,67.07
2019-02-28T00:33:06.704Z,68.97
2019-02-28T00:35:34.115Z,78.53
2019-02-28T00:38:01.529Z,63.23
2019-02-28T00:40:28.952Z,71.70
2019-02-28T00:42:56.358Z,72.93
2019-02-28T00:45:23.790Z,74.10
2019-02-28T00:47:51.189Z,73.67
2019-02-28T00:50:18.588Z,70.93
2019-02-28T00:52:46.026Z,75.23
2019-02-28T00:55:14.510Z,69.03
2019-02-28T00:57:40.871Z,69.47
2019-02-28T01:00:17.299Z,78.43
2019-02-28T01:02:44.732Z,72.90
2019-02-28T01:05:12.135Z,72.97
2019-02-28T01:07:39.552Z,71.97
2019-02-28T01:10:06.956Z,66.23
2019-02-28T01:12:34.400Z,70.60
2019-02-28T01:15:01.840Z,64.70
2019-02-28T01:17:29.265Z,67.20
2019-02-28T01:19:56.648Z,64.40
2019-02-28T01:22:26.830Z,67.90
2019-02-28T01:24:51.492Z,76.13
2019-02-28T01:27:20.890Z,59.37
2019-02-28T01:29:46.373Z,66.97
2019-02-28T01:32:15.635Z,71.23
2019-02-28T01:34:41.199Z,69.63
2019-02-28T01:37:08.619Z,81.17
2019-02-28T01:39:36.046Z,83.47
2019-02-28T01:42:03.453Z,86.33
2019-02-28T01:44:35.561Z,85.27
2019-02-28T01:46:58.316Z,83.33
2019-02-28T01:49:26.878Z,80.73
2019-02-28T01:51:53.134Z,83.07
2019-02-28T01:54:20.538Z,87.13
2019-02-28T01:56:47.968Z,79.00
2019-02-28T01:59:15.408Z,89.00
2019-02-28T02:01:42.829Z,90.83
2019-02-28T02:04:12.510Z,88.67
2019-02-28T02:06:37.670Z,82.63
2019-02-28T02:09:05.077Z,87.20
2019-02-28T02:11:32.508Z,89.03
2019-02-28T02:13:59.902Z,90.70
2019-02-28T02:16:27.894Z,93.37
2019-02-28T02:18:54.777Z,97.80
2019-02-28T02:21:22.174Z,91.13
2019-02-28T02:23:52.917Z,91.83
2019-02-28T02:26:17.004Z,94.17
2019-02-28T02:28:44.424Z,93.30
2019-02-28T02:31:11.826Z,86.60
2019-02-28T02:33:39.255Z,90.23
2019-02-28T02:36:06.677Z,80.63
2019-02-28T02:38:39.778Z,88.97
2019-02-28T02:41:01.509Z,92.87
2019-02-28T02:43:28.912Z,89.93
2019-02-28T02:45:56.332Z,91.43
2019-02-28T02:48:23.738Z,87.40
2019-02-28T02:50:51.198Z,77.30
2019-02-28T02:53:18.615Z,90.93
2019-02-28T02:55:46.046Z,85.10
2019-02-28T02:58:13.452Z,89.93
2019-02-28T03:00:40.870Z,95.73
2019-02-28T03:03:08.297Z,93.47
2019-02-28T03:05:36.768Z,89.50
2019-02-28T03:08:03.136Z,86.87
2019-02-28T03:10:30.574Z,85.60
2019-02-28T03:12:57.957Z,86.93
2019-02-28T03:15:27.132Z,94.37
2019-02-28T03:17:52.820Z,89.70
2019-02-28T03:20:20.246Z,85.73
2019-02-28T03:22:47.676Z,97.27
2019-02-28T03:25:15.085Z,91.97
2019-02-28T03:27:42.519Z,93.13
2019-02-28T03:30:09.959Z,90.77
2019-02-28T03:32:42.104Z,87.63
2019-02-28T03:35:04.815Z,83.23
2019-02-28T03:37:33.412Z,94.10
2019-02-28T03:40:04.309Z,91.73
2019-02-28T03:42:28.965Z,77.53
2019-02-28T03:44:57.124Z,81.60
2019-02-28T03:47:23.843Z,76.97
2019-02-28T03:49:50.247Z,90.43
2019-02-28T03:52:16.714Z,83.87
2019-02-28T03:54:44.148Z,84.70
2019-02-28T03:57:11.578Z,89.07
2019-02-28T03:59:39.008Z,93.70
2019-02-28T04:02:06.400Z,93.45
2019-02-28T04:04:33.828Z,92.03
2019-02-28T04:07:01.236Z,97.87
2019-02-28T04:09:28.660Z,97.90
2019-02-28T04:11:56.064Z,93.60
2019-02-28T04:14:23.489Z,96.60
2019-02-28T04:16:54.157Z,100.13
2019-02-28T04:19:22.652Z,99.17
2019-02-28T04:21:46.580Z,98.13
2019-02-28T04:24:14.098Z,104.13
2019-02-28T04:26:40.660Z,99.07
2019-02-28T04:29:08.063Z,101.53
2019-02-28T04:31:35.494Z,96.50
2019-02-28T04:34:02.911Z,101.23
2019-02-28T04:36:35.508Z,100.93
2019-02-28T04:38:57.755Z,103.53
2019-02-28T04:41:25.187Z,98.27
2019-02-28T04:43:52.610Z,100.43
2019-02-28T04:46:20.033Z,96.30
2019-02-28T04:48:48.458Z,111.23
2019-02-28T04:51:14.890Z,97.40
2019-02-28T04:53:42.329Z,98.80
2019-02-28T04:56:11.412Z,93.43
2019-02-28T04:58:37.170Z,97.80
2019-02-28T05:01:04.597Z,100.50
2019-02-28T05:03:31.999Z,98.80
2019-02-28T05:05:59.437Z,96.87
2019-02-28T05:08:26.843Z,92.67
2019-02-28T05:10:55.940Z,107.17
2019-02-28T05:13:21.688Z,109.37
2019-02-28T05:15:49.125Z,104.37
2019-02-28T05:18:16.540Z,97.10
2019-02-28T05:20:45.910Z,103.77
2019-02-28T05:23:11.428Z,108.10
2019-02-28T05:25:38.864Z,105.93
2019-02-28T05:28:07.470Z,101.77
2019-02-28T05:30:33.718Z,99.60
2019-02-28T05:33:01.135Z,109.73
2019-02-28T05:35:28.550Z,109.27
2019-02-28T05:37:55.987Z,97.90
2019-02-28T05:40:23.402Z,90.13
2019-02-28T05:42:50.833Z,100.23
2019-02-28T05:45:18.257Z,103.37
2019-02-28T05:47:47.079Z,91.30
2019-02-28T05:50:16.617Z,98.80
2019-02-28T05:52:40.528Z,98.30
2019-02-28T05:55:07.962Z,100.97
2019-02-28T05:57:35.377Z,106.87
2019-02-28T06:00:03.029Z,93.40
2019-02-28T06:02:30.356Z,98.67
2019-02-28T06:04:57.763Z,103.37
2019-02-28T06:07:25.918Z,97.30
2019-02-28T06:09:52.614Z,95.93
2019-02-28T06:12:20.053Z,86.60
2019-02-28T06:14:47.481Z,94.43
2019-02-28T06:17:17.306Z,97.30
2019-02-28T06:19:43.544Z,97.13
2019-02-28T06:22:09.757Z,92.43
2019-02-28T06:24:37.201Z,100.20
2019-02-28T06:27:06.637Z,89.97
2019-02-28T06:29:32.641Z,98.53
2019-02-28T06:31:59.446Z,92.40
2019-02-28T06:34:26.872Z,93.27
2019-02-28T06:36:54.293Z,85.93
2019-02-28T06:39:21.699Z,93.37
2019-02-28T06:41:49.138Z,94.63
2019-02-28T06:44:16.554Z,88.27
2019-02-28T06:46:43.989Z,92.40
2019-02-28T06:49:11.405Z,84.37
2019-02-28T06:51:38.836Z,96.23
2019-02-28T06:54:07.951Z,84.80
2019-02-28T06:56:33.686Z,85.60
2019-02-28T06:59:01.105Z,87.77
2019-02-28T07:01:29.582Z,80.90
2019-02-28T07:03:55.994Z,87.23
2019-02-28T07:06:23.405Z,82.57
2019-02-28T07:08:50.812Z,88.57
2019-02-28T07:11:19.900Z,89.57
2019-02-28T07:13:45.692Z,87.70
2019-02-28T07:16:13.130Z,88.33
2019-02-28T07:18:40.536Z,88.53
2019-02-28T07:21:08.685Z,82.93
2019-02-28T07:23:35.409Z,86.93
2019-02-28T07:26:02.849Z,84.23
2019-02-28T07:28:30.262Z,85.53
2019-02-28T07:30:57.697Z,82.73
2019-02-28T07:33:25.102Z,77.80
2019-02-28T07:35:52.519Z,89.40
2019-02-28T07:38:19.941Z,87.03
2019-02-28T07:40:49.595Z,76.70
2019-02-28T07:43:14.776Z,82.40
2019-02-28T07:45:42.234Z,77.37
2019-02-28T07:48:09.663Z,74.83
2019-02-28T07:50:37.083Z,79.83
2019-02-28T07:53:05.552Z,84.27
2019-02-28T07:55:31.914Z,80.50
2019-02-28T07:57:59.355Z,83.83
2019-02-28T08:00:26.768Z,84.20
2019-02-28T08:02:54.170Z,77.13
2019-02-28T08:05:21.613Z,74.57
2019-02-28T08:07:51.895Z,77.97
2019-02-28T08:10:22.311Z,87.13
2019-02-28T08:12:49.717Z,79.77
2019-02-28T08:15:21.093Z,85.93
2019-02-28T08:17:44.748Z,79.50
2019-02-28T08:20:11.986Z,81.13
2019-02-28T08:22:39.431Z,78.77
2019-02-28T08:25:07.838Z,81.67
2019-02-28T08:27:34.270Z,75.27
2019-02-28T08:30:01.694Z,75.30
2019-02-28T08:32:29.102Z,120.90
2019-02-28T08:34:59.562Z,87.70
2019-02-28T08:37:23.935Z,81.60
2019-02-28T08:39:51.371Z,71.33
2019-02-28T08:42:18.774Z,85.67
2019-02-28T08:44:46.236Z,82.63
2019-02-28T08:47:13.640Z,76.40
2019-02-28T08:49:43.979Z,82.03
2019-02-28T08:52:08.493Z,77.07
2019-02-28T08:54:35.921Z,81.17
2019-02-28T08:57:03.340Z,96.63
2019-02-28T08:59:30.825Z,72.77
2019-02-28T09:01:58.251Z,73.27
2019-02-28T09:04:25.650Z,82.23
2019-02-28T09:06:53.069Z,69.17
2019-02-28T09:09:20.491Z,72.73
2019-02-28T09:11:47.935Z,75.17
2019-02-28T09:14:17.794Z,72.37
2019-02-28T09:16:42.770Z,73.73
2019-02-28T09:19:10.212Z,76.00
2019-02-28T09:21:37.650Z,73.63
2019-02-28T09:24:05.127Z,75.97
2019-02-28T09:26:32.554Z,73.53
2019-02-28T09:28:59.958Z,78.93
2019-02-28T09:31:27.393Z,74.43
2019-02-28T09:33:55.493Z,70.57
2019-02-28T09:36:22.247Z,74.57
2019-02-28T09:38:56.885Z,77.00
2019-02-28T09:41:19.006Z,75.47
2019-02-28T09:43:44.522Z,86.70
2019-02-28T09:46:12.481Z,78.20
2019-02-28T09:48:39.346Z,71.47
2019-02-28T09:51:06.782Z,79.53
2019-02-28T09:53:34.194Z,79.30
2019-02-28T09:56:01.618Z,76.63
2019-02-28T09:58:29.981Z,77.10
2019-02-28T10:00:56.481Z,75.33
2019-02-28T10:03:23.891Z,85.83
2019-02-28T10:05:51.350Z,82.23
2019-02-28T10:08:18.742Z,85.53
2019-02-28T10:10:46.267Z,83.13
2019-02-28T10:13:14.528Z,88.93
2019-02-28T10:15:41.823Z,90.77
2019-02-28T10:18:08.530Z,86.73
2019-02-28T10:20:35.932Z,86.43
2019-02-28T10:23:03.358Z,86.23
2019-02-28T10:25:30.758Z,93.50
2019-02-28T10:28:01.702Z,95.00
2019-02-28T10:30:31.776Z,113.20
2019-02-28T10:32:53.013Z,111.27
2019-02-28T10:35:20.418Z,108.17
2019-02-28T10:37:47.836Z,114.10
2019-02-28T10:40:30.209Z,117.47
2019-02-28T10:42:57.614Z,117.20
2019-02-28T10:45:25.057Z,115.17
2019-02-28T10:47:52.464Z,126.67
2019-02-28T10:50:34.815Z,120.10
2019-02-28T10:53:05.374Z,116.87
2019-02-28T10:55:29.670Z,127.70
2019-02-28T10:57:57.069Z,121.47
2019-02-28T11:00:29.388Z,123.57
2019-02-28T11:02:57.448Z,111.03
2019-02-28T11:05:22.274Z,117.97
2019-02-28T11:07:49.704Z,107.90
2019-02-28T11:10:17.132Z,110.73
2019-02-28T11:12:44.556Z,120.43
2019-02-28T11:15:13.941Z,95.60
2019-02-28T11:17:39.409Z,92.90
2019-02-28T11:20:06.873Z,107.27
2019-02-28T11:22:36.564Z,91.70
2019-02-28T11:25:02.118Z,92.70
2019-02-28T11:27:29.169Z,84.63
2019-02-28T11:29:56.654Z,83.67
2019-02-28T11:32:26.434Z,79.67
2019-02-28T11:34:51.516Z,83.07
2019-02-28T11:37:19.037Z,75.00
2019-02-28T11:39:46.444Z,74.70
2019-02-28T11:42:13.899Z,70.70
2019-02-28T11:44:43.474Z,63.70
2019-02-28T11:47:11.209Z,71.67
2019-02-28T11:49:36.135Z,61.70
2019-02-28T11:52:03.545Z,59.63
2019-02-28T11:54:30.979Z,61.60
2019-02-28T11:57:02.807Z,62.07
2019-02-28T11:59:25.787Z,52.73
2019-02-28T12:01:53.251Z,56.63
2019-02-28T12:04:20.665Z,46.43
2019-02-28T12:06:48.096Z,43.50
2019-02-28T12:09:16.265Z,43.70
2019-02-28T12:11:42.954Z,40.07
2019-02-28T12:14:10.386Z,69.20
2019-02-28T12:16:37.794Z,46.30
2019-02-28T12:19:05.216Z,37.73
2019-02-28T12:21:37.598Z,31.73
2019-02-28T12:24:00.638Z,33.43
2019-02-28T12:26:27.465Z,26.33
2019-02-28T12:28:54.899Z,25.07
2019-02-28T12:31:22.323Z,20.70
2019-02-28T12:33:49.731Z,27.07
2019-02-28T12:36:17.162Z,23.60
2019-02-28T12:38:44.592Z,27.83
2019-02-28T12:41:12.030Z,24.27
2019-02-28T12:43:40.527Z,25.30
2019-02-28T12:46:06.880Z,18.37
2019-02-28T12:48:34.286Z,20.27
2019-02-28T12:51:02.263Z,33.47
2019-02-28T12:53:29.119Z,20.07
2019-02-28T12:55:56.542Z,17.53
2019-02-28T12:58:23.959Z,18.13
2019-02-28T13:00:51.408Z,19.57
2019-02-28T13:03:20.312Z,18.17
2019-02-28T13:05:48.178Z,14.97
2019-02-28T13:08:13.664Z,18.93
2019-02-28T13:10:42.202Z,17.53
2019-02-28T13:13:08.489Z,16.20
2019-02-28T13:15:35.890Z,14.20
2019-02-28T13:18:07.110Z,17.20
2019-02-28T13:20:34.695Z,18.53
2019-02-28T13:23:01.373Z,17.60
2019-02-28T13:25:28.803Z,22.70
2019-02-28T13:27:56.193Z,18.97
2019-02-28T13:30:23.638Z,18.03
2019-02-28T13:32:51.044Z,23.10
2019-02-28T13:35:18.488Z,18.47
2019-02-28T13:37:45.940Z,16.87
2019-02-28T13:40:16.269Z,26.77
2019-02-28T13:42:43.706Z,23.93
2019-02-28T13:45:21.356Z,18.13
2019-02-28T13:47:42.097Z,23.87
2019-02-28T13:50:11.527Z,15.80
2019-02-28T13:52:38.962Z,17.27
2019-02-28T13:55:06.398Z,16.90
2019-02-28T13:57:33.800Z,14.17
2019-02-28T14:00:01.207Z,19.47
2019-02-28T14:02:29.844Z,20.23
2019-02-28T14:04:58.709Z,17.67
2019-02-28T14:07:23.428Z,20.73
2019-02-28T14:09:56.861Z,16.37
2019-02-28T14:12:20.679Z,22.13
2019-02-28T14:14:46.267Z,17.20
2019-02-28T14:17:13.756Z,16.20
2019-02-28T14:19:41.349Z,14.70
2019-02-28T14:22:11.580Z,20.33
2019-02-28T14:24:36.577Z,21.60
2019-02-28T14:27:04.067Z,13.70
2019-02-28T14:29:31.507Z,14.03
2019-02-28T14:31:58.910Z,10.67
2019-02-28T14:34:27.210Z,15.93
2019-02-28T14:36:53.765Z,10.77
2019-02-28T14:39:21.200Z,17.20
2019-02-28T14:41:48.610Z,23.57
2019-02-28T14:44:16.006Z,17.47
2019-02-28T14:46:43.426Z,16.60
2019-02-28T14:49:12.590Z,13.93
2019-02-28T14:51:38.254Z,33.87
2019-02-28T14:54:05.679Z,18.83
2019-02-28T14:56:33.105Z,17.17
2019-02-28T14:59:00.514Z,17.73
2019-02-28T15:01:27.943Z,19.77
2019-02-28T15:03:55.349Z,19.53
2019-02-28T15:06:22.774Z,10.50
2019-02-28T15:08:50.807Z,12.83
2019-02-28T15:11:17.632Z,15.07
2019-02-28T15:13:45.031Z,15.70
2019-02-28T15:16:12.458Z,7.93
2019-02-28T15:18:39.880Z,10.70
2019-02-28T15:21:07.664Z,14.10
2019-02-28T15:23:35.110Z,10.30
2019-02-28T15:26:02.147Z,11.40
2019-02-28T15:28:29.558Z,20.67
2019-02-28T15:30:56.986Z,12.23
2019-02-28T15:33:27.393Z,7.63
2019-02-28T15:35:51.820Z,11.20
2019-02-28T15:38:19.246Z,10.37
2019-02-28T15:40:46.652Z,16.13
2019-02-28T15:43:17.186Z,14.63
2019-02-28T15:45:41.485Z,12.90
2019-02-28T15:48:08.909Z,9.73
2019-02-28T15:50:36.326Z,12.70
2019-02-28T15:53:03.857Z,15.37
2019-02-28T15:55:31.314Z,16.03
2019-02-28T15:57:58.724Z,8.77
2019-02-28T16:00:26.155Z,15.30
2019-02-28T16:02:53.579Z,13.43
2019-02-28T16:05:21.014Z,8.10
2019-02-28T16:07:50.462Z,8.20
2019-02-28T16:10:18.731Z,13.60
2019-02-28T16:12:46.585Z,15.40
2019-02-28T16:15:13.582Z,10.17
2019-02-28T16:17:41.003Z,10.93
2019-02-28T16:20:14.159Z,13.87
2019-02-28T16:22:41.650Z,7.53
2019-02-28T16:25:14.870Z,9.70
2019-02-28T16:27:39.217Z,12.77
2019-02-28T16:30:12.045Z,11.37
2019-02-28T16:32:39.463Z,16.33
2019-02-28T16:35:06.877Z,13.53
2019-02-28T16:37:35.053Z,17.83
2019-02-28T16:40:01.727Z,11.80
2019-02-28T16:42:29.158Z,16.07
2019-02-28T16:44:56.581Z,11.03
2019-02-28T16:47:24.373Z,8.73
2019-02-28T16:49:51.446Z,12.13
2019-02-28T16:52:18.847Z,15.23
2019-02-28T16:54:46.288Z,10.70
2019-02-28T16:57:13.729Z,15.67
2019-02-28T16:59:41.138Z,15.53
2019-02-28T17:02:08.552Z,19.37
2019-02-28T17:04:35.982Z,17.90
2019-02-28T17:07:03.384Z,16.33
2019-02-28T17:09:31.198Z,19.73
2019-02-28T17:12:00.830Z,25.40
2019-02-28T17:14:28.260Z,17.03
2019-02-28T17:16:58.406Z,22.30
2019-02-28T17:19:28.552Z,23.97
2019-02-28T17:21:53.307Z,18.33
2019-02-28T17:24:20.717Z,27.30
2019-02-28T17:26:51.076Z,18.43
2019-02-28T17:29:21.603Z,19.37
2019-02-28T17:31:48.192Z,17.60
2019-02-28T17:34:13.337Z,22.13
2019-02-28T17:36:40.804Z,14.37
2019-02-28T17:39:08.223Z,26.73
2019-02-28T17:41:37.146Z,22.30
2019-02-28T17:44:21.050Z,24.63
2019-02-28T17:46:48.520Z,24.53
2019-02-28T17:49:30.696Z,21.67
2019-02-28T17:51:58.501Z,21.03
2019-02-28T17:54:31.286Z,22.03
2019-02-28T17:57:10.326Z,16.80
2019-02-28T17:59:56.131Z,15.33
2019-02-28T18:03:00.739Z,11.77
2019-02-28T18:05:59.119Z,15.80
2019-02-28T18:08:38.534Z,13.37
2019-02-28T18:11:11.781Z,18.67
2019-02-28T18:14:03.375Z,15.33
2019-02-28T18:16:36.458Z,14.73
2019-02-28T18:19:06.605Z,18.80
2019-02-28T18:21:37.424Z,19.40
2019-02-28T18:24:31.376Z,19.93
2019-02-28T18:27:04.532Z,20.93
2019-02-28T18:29:49.878Z,18.83
2019-02-28T18:32:17.294Z,22.50
2019-02-28T18:34:44.699Z,21.40
2019-02-28T18:37:12.143Z,24.50
2019-02-28T18:39:39.818Z,23.60
2019-02-28T18:42:07.260Z,23.73
2019-02-28T18:44:37.506Z,25.37
2019-02-28T18:47:04.162Z,19.60
2019-02-28T18:49:30.181Z,27.10
2019-02-28T18:51:56.951Z,24.70
2019-02-28T18:54:24.369Z,21.17
2019-02-28T18:56:51.806Z,18.30
2019-02-28T18:59:19.290Z,16.77
2019-02-28T19:01:46.691Z,21.37
2019-02-28T19:04:14.143Z,17.80
2019-02-28T19:06:41.578Z,21.03
2019-02-28T19:09:17.728Z,19.33
2019-02-28T19:11:45.159Z,26.50
2019-02-28T19:14:12.575Z,18.30
2019-02-28T19:16:40.023Z,20.50
2019-02-28T19:19:07.446Z,17.27
2019-02-28T19:21:34.893Z,21.00
2019-02-28T19:24:02.331Z,18.87
2019-02-28T19:26:29.765Z,23.23
2019-02-28T19:28:57.177Z,25.23
2019-02-28T19:31:24.601Z,17.67
2019-02-28T19:33:52.025Z,18.83
2019-02-28T19:36:19.450Z,24.03
2019-02-28T19:38:46.979Z,21.67
2019-02-28T19:41:14.400Z,26.30
2019-02-28T19:43:41.850Z,28.30
2019-02-28T19:46:09.246Z,19.90
2019-02-28T19:48:36.728Z,21.77
2019-02-28T19:51:04.167Z,23.13
2019-02-28T19:53:31.569Z,21.27
2019-02-28T19:55:59.102Z,22.00
2019-02-28T19:58:26.525Z,31.63
2019-02-28T20:00:54.028Z,19.40
2019-02-28T20:03:21.456Z,18.07
2019-02-28T20:05:49.377Z,23.67
2019-02-28T20:08:16.773Z,22.73
2019-02-28T20:10:44.230Z,18.67
2019-02-28T20:13:11.644Z,20.73
2019-02-28T20:15:39.050Z,19.13
2019-02-28T20:18:06.526Z,23.87
2019-02-28T20:20:33.912Z,19.00
2019-02-28T20:23:01.418Z,17.80
2019-02-28T20:25:28.816Z,16.17
2019-02-28T20:27:56.273Z,20.33
2019-02-28T20:30:23.747Z,15.43
2019-02-28T20:32:51.141Z,13.53
2019-02-28T20:35:26.126Z,15.90
2019-02-28T20:37:46.033Z,13.70
2019-02-28T20:40:25.356Z,15.27
2019-02-28T20:42:52.777Z,12.93
2019-02-28T20:45:20.227Z,12.17
2019-02-28T20:47:48.030Z,10.90
2019-02-28T20:50:15.460Z,11.57
2019-02-28T20:52:42.915Z,10.87
2019-02-28T20:55:10.350Z,13.30
2019-02-28T20:57:37.826Z,19.33
2019-02-28T21:00:07.980Z,13.10
2019-02-28T21:02:35.452Z,11.60
2019-02-28T21:05:02.884Z,11.30
2019-02-28T21:07:30.364Z,14.13
2019-02-28T21:09:57.766Z,12.50
2019-02-28T21:12:25.267Z,10.97
2019-02-28T21:14:52.679Z,16.07
2019-02-28T21:17:29.054Z,11.20
2019-02-28T21:19:47.652Z,14.63
2019-02-28T21:22:15.116Z,14.23
2019-02-28T21:24:42.504Z,12.13
2019-02-28T21:27:09.928Z,15.23
2019-02-28T21:29:37.358Z,12.57
2019-02-28T21:32:04.787Z,13.20
2019-02-28T21:34:32.304Z,13.07
2019-02-28T21:36:59.702Z,19.63
2019-02-28T21:39:27.130Z,15.80
2019-02-28T21:41:54.631Z,15.57
2019-02-28T21:44:22.097Z,16.57
2019-02-28T21:46:49.536Z,14.70
2019-02-28T21:49:16.951Z,22.07
2019-02-28T21:51:44.379Z,19.13
2019-02-28T21:54:11.839Z,18.77
2019-02-28T21:56:39.277Z,17.40
2019-02-28T21:59:06.682Z,17.83
2019-02-28T22:01:34.202Z,24.50
2019-02-28T22:04:01.615Z,24.93
2019-02-28T22:06:29.047Z,19.97
2019-02-28T22:08:56.472Z,33.03
2019-02-28T22:11:23.904Z,23.90
2019-02-28T22:13:51.327Z,28.57
2019-02-28T22:16:18.780Z,24.70
2019-02-28T22:18:46.171Z,27.93
2019-02-28T22:21:13.595Z,22.63
2019-02-28T22:23:41.034Z,18.83
2019-02-28T22:26:08.495Z,25.27
2019-02-28T22:28:35.954Z,19.20
2019-02-28T22:31:03.384Z,20.27
2019-02-28T22:33:39.523Z,21.40
2019-02-28T22:36:15.762Z,18.50
2019-02-28T22:38:43.210Z,17.73
2019-02-28T22:41:10.615Z,18.13
2019-02-28T22:43:38.044Z,20.63
2019-02-28T22:46:05.491Z,18.47
2019-02-28T22:48:32.896Z,18.23
2019-02-28T22:51:00.489Z,21.17
2019-02-28T22:53:27.911Z,17.93
2019-02-28T22:55:55.365Z,18.90
2019-02-28T22:58:23.010Z,22.17
2019-02-28T23:00:59.555Z,19.13
2019-02-28T23:03:26.963Z,27.53
2019-02-28T23:05:54.356Z,22.17
2019-02-28T23:08:21.826Z,21.90
2019-02-28T23:10:49.224Z,23.77
2019-02-28T23:13:16.664Z,20.83
2019-02-28T23:15:44.239Z,25.60
2019-02-28T23:18:11.690Z,25.43
2019-02-28T23:20:39.100Z,26.53
2019-02-28T23:23:06.512Z,23.57
2019-02-28T23:25:34.001Z,28.87
2019-02-28T23:28:07.383Z,23.47
2019-02-28T23:30:34.827Z,21.70
2019-02-28T23:33:02.243Z,22.23
2019-02-28T23:35:29.687Z,22.57
2019-02-28T23:37:57.093Z,25.03
2019-02-28T23:40:24.527Z,24.10
2019-02-28T23:42:51.956Z,24.23
2019-02-28T23:45:19.372Z,38.30
2019-02-28T23:47:46.798Z,29.67
2019-02-28T23:50:14.226Z,27.13
2019-02-28T23:52:41.653Z,26.87
2019-02-28T23:55:09.174Z,33.67
2019-02-28T23:57:36.608Z,40.20
